sensor_id;sensor_type;location;lat;lon;timestamp;P1;durP1;ratioP1;P2;durP2;ratioP2
32399;SDS011;45045;45.440;9.178;2022-12-24T00:01:13;64.07;;;44.92;;
32399;SDS011;45045;45.440;9.178;2022-12-24T00:03:38;66.22;;;44.92;;
32399;SDS011;45045;45.440;9.178;2022-12-24T00:06:08;60.65;;;45.85;;
32399;SDS011;45045;45.440;9.178;2022-12-24T00:08:39;63.60;;;47.13;;
32399;SDS011;45045;45.440;9.178;2022-12-24T00:11:05;64.95;;;47.58;;
32399;SDS011;45045;45.440;9.178;2022-12-24T00:13:31;63.20;;;46.30;;
32399;SDS011;45045;45.440;9.178;2022-12-24T00:15:58;63.10;;;45.28;;
32399;SDS011;45045;45.440;9.178;2022-12-24T00:18:24;70.43;;;47.47;;
32399;SDS011;45045;45.440;9.178;2022-12-24T00:20:51;65.05;;;46.65;;
32399;SDS011;45045;45.440;9.178;2022-12-24T00:23:17;64.00;;;45.28;;
32399;SDS011;45045;45.440;9.178;2022-12-24T00:25:43;63.10;;;44.17;;
32399;SDS011;45045;45.440;9.178;2022-12-24T00:28:10;60.10;;;45.45;;
32399;SDS011;45045;45.440;9.178;2022-12-24T00:30:39;62.53;;;46.22;;
32399;SDS011;45045;45.440;9.178;2022-12-24T00:33:06;83.93;;;57.80;;
32399;SDS011;45045;45.440;9.178;2022-12-24T00:35:33;77.60;;;55.42;;
32399;SDS011;45045;45.440;9.178;2022-12-24T00:37:59;92.05;;;62.60;;
32399;SDS011;45045;45.440;9.178;2022-12-24T00:40:27;66.68;;;48.92;;
32399;SDS011;45045;45.440;9.178;2022-12-24T00:42:54;65.85;;;47.75;;
32399;SDS011;45045;45.440;9.178;2022-12-24T00:45:20;67.18;;;47.55;;
32399;SDS011;45045;45.440;9.178;2022-12-24T00:47:46;62.20;;;46.97;;
32399;SDS011;45045;45.440;9.178;2022-12-24T00:50:13;68.90;;;48.47;;
32399;SDS011;45045;45.440;9.178;2022-12-24T00:52:39;64.82;;;47.80;;
32399;SDS011;45045;45.440;9.178;2022-12-24T00:55:05;71.18;;;49.72;;
32399;SDS011;45045;45.440;9.178;2022-12-24T00:57:31;66.60;;;48.92;;
32399;SDS011;45045;45.440;9.178;2022-12-24T00:59:57;67.80;;;48.40;;
32399;SDS011;45045;45.440;9.178;2022-12-24T01:02:23;61.60;;;45.33;;
32399;SDS011;45045;45.440;9.178;2022-12-24T01:04:49;68.65;;;48.85;;
32399;SDS011;45045;45.440;9.178;2022-12-24T01:07:33;65.43;;;47.70;;
32399;SDS011;45045;45.440;9.178;2022-12-24T01:09:59;66.85;;;46.88;;
32399;SDS011;45045;45.440;9.178;2022-12-24T01:12:25;67.95;;;47.30;;
32399;SDS011;45045;45.440;9.178;2022-12-24T01:14:51;65.50;;;45.28;;
32399;SDS011;45045;45.440;9.178;2022-12-24T01:17:17;68.25;;;47.97;;
32399;SDS011;45045;45.440;9.178;2022-12-24T01:19:43;65.65;;;46.72;;
32399;SDS011;45045;45.440;9.178;2022-12-24T01:22:09;66.03;;;47.38;;
32399;SDS011;45045;45.440;9.178;2022-12-24T01:24:35;62.47;;;46.75;;
32399;SDS011;45045;45.440;9.178;2022-12-24T01:27:00;63.53;;;46.70;;
32399;SDS011;45045;45.440;9.178;2022-12-24T01:29:26;66.50;;;48.00;;
32399;SDS011;45045;45.440;9.178;2022-12-24T01:31:52;65.68;;;47.65;;
32399;SDS011;45045;45.440;9.178;2022-12-24T01:34:18;62.83;;;47.10;;
32399;SDS011;45045;45.440;9.178;2022-12-24T01:36:44;67.07;;;47.45;;
32399;SDS011;45045;45.440;9.178;2022-12-24T01:39:09;62.72;;;46.65;;
32399;SDS011;45045;45.440;9.178;2022-12-24T01:41:35;64.07;;;46.88;;
32399;SDS011;45045;45.440;9.178;2022-12-24T01:44:21;65.72;;;47.47;;
32399;SDS011;45045;45.440;9.178;2022-12-24T01:49:28;67.43;;;49.28;;
32399;SDS011;45045;45.440;9.178;2022-12-24T01:51:55;71.30;;;49.10;;
32399;SDS011;45045;45.440;9.178;2022-12-24T01:54:36;67.45;;;48.38;;
32399;SDS011;45045;45.440;9.178;2022-12-24T01:57:14;71.88;;;50.03;;
32399;SDS011;45045;45.440;9.178;2022-12-24T01:59:50;65.43;;;49.70;;
32399;SDS011;45045;45.440;9.178;2022-12-24T02:02:20;70.20;;;51.00;;
32399;SDS011;45045;45.440;9.178;2022-12-24T02:07:29;73.50;;;50.75;;
32399;SDS011;45045;45.440;9.178;2022-12-24T02:09:58;71.03;;;51.92;;
32399;SDS011;45045;45.440;9.178;2022-12-24T02:12:29;68.80;;;49.70;;
32399;SDS011;45045;45.440;9.178;2022-12-24T02:14:59;75.35;;;50.70;;
32399;SDS011;45045;45.440;9.178;2022-12-24T02:17:29;68.53;;;50.85;;
32399;SDS011;45045;45.440;9.178;2022-12-24T02:31:35;69.18;;;50.28;;
32399;SDS011;45045;45.440;9.178;2022-12-24T02:34:06;68.78;;;50.38;;
32399;SDS011;45045;45.440;9.178;2022-12-24T02:37:22;72.55;;;51.92;;
32399;SDS011;45045;45.440;9.178;2022-12-24T02:39:38;74.03;;;51.90;;
32399;SDS011;45045;45.440;9.178;2022-12-24T02:42:11;68.45;;;50.33;;
32399;SDS011;45045;45.440;9.178;2022-12-24T02:44:49;71.90;;;50.67;;
32399;SDS011;45045;45.440;9.178;2022-12-24T02:47:26;65.85;;;48.85;;
32399;SDS011;45045;45.440;9.178;2022-12-24T02:49:52;69.50;;;50.17;;
32399;SDS011;45045;45.440;9.178;2022-12-24T02:55:02;74.80;;;51.15;;
32399;SDS011;45045;45.440;9.178;2022-12-24T03:00:13;68.03;;;49.50;;
32399;SDS011;45045;45.440;9.178;2022-12-24T03:05:56;70.50;;;49.72;;
32399;SDS011;45045;45.440;9.178;2022-12-24T03:11:14;70.43;;;48.90;;
32399;SDS011;45045;45.440;9.178;2022-12-24T03:13:42;69.97;;;49.20;;
32399;SDS011;45045;45.440;9.178;2022-12-24T03:16:12;67.43;;;49.40;;
32399;SDS011;45045;45.440;9.178;2022-12-24T03:18:42;66.72;;;49.28;;
32399;SDS011;45045;45.440;9.178;2022-12-24T03:21:19;69.55;;;49.42;;
32399;SDS011;45045;45.440;9.178;2022-12-24T03:23:48;73.60;;;48.47;;
32399;SDS011;45045;45.440;9.178;2022-12-24T03:26:15;65.50;;;48.45;;
32399;SDS011;45045;45.440;9.178;2022-12-24T03:28:43;72.65;;;48.92;;
32399;SDS011;45045;45.440;9.178;2022-12-24T03:31:10;66.65;;;46.60;;
32399;SDS011;45045;45.440;9.178;2022-12-24T03:33:36;70.43;;;49.53;;
32399;SDS011;45045;45.440;9.178;2022-12-24T03:36:03;66.82;;;47.70;;
32399;SDS011;45045;45.440;9.178;2022-12-24T03:38:29;67.07;;;48.83;;
32399;SDS011;45045;45.440;9.178;2022-12-24T03:40:55;71.43;;;48.78;;
32399;SDS011;45045;45.440;9.178;2022-12-24T03:43:21;69.95;;;48.45;;
32399;SDS011;45045;45.440;9.178;2022-12-24T03:45:47;65.13;;;47.47;;
32399;SDS011;45045;45.440;9.178;2022-12-24T03:48:13;64.53;;;48.97;;
32399;SDS011;45045;45.440;9.178;2022-12-24T03:50:38;63.97;;;46.60;;
32399;SDS011;45045;45.440;9.178;2022-12-24T03:53:04;66.50;;;48.05;;
32399;SDS011;45045;45.440;9.178;2022-12-24T03:55:30;71.32;;;49.08;;
32399;SDS011;45045;45.440;9.178;2022-12-24T03:57:56;61.08;;;47.03;;
32399;SDS011;45045;45.440;9.178;2022-12-24T04:00:22;67.03;;;47.45;;
32399;SDS011;45045;45.440;9.178;2022-12-24T04:02:47;64.00;;;46.65;;
32399;SDS011;45045;45.440;9.178;2022-12-24T04:05:14;65.75;;;46.58;;
32399;SDS011;45045;45.440;9.178;2022-12-24T04:07:41;64.63;;;46.42;;
32399;SDS011;45045;45.440;9.178;2022-12-24T04:10:07;67.18;;;46.92;;
32399;SDS011;45045;45.440;9.178;2022-12-24T04:12:34;64.78;;;46.40;;
32399;SDS011;45045;45.440;9.178;2022-12-24T04:15:00;62.20;;;44.88;;
32399;SDS011;45045;45.440;9.178;2022-12-24T04:17:26;62.03;;;44.80;;
32399;SDS011;45045;45.440;9.178;2022-12-24T04:19:51;62.08;;;44.17;;
32399;SDS011;45045;45.440;9.178;2022-12-24T04:22:17;62.38;;;45.30;;
32399;SDS011;45045;45.440;9.178;2022-12-24T04:24:43;62.45;;;45.70;;
32399;SDS011;45045;45.440;9.178;2022-12-24T04:27:09;62.38;;;45.72;;
32399;SDS011;45045;45.440;9.178;2022-12-24T04:29:34;63.55;;;47.25;;
32399;SDS011;45045;45.440;9.178;2022-12-24T04:32:00;63.05;;;46.50;;
32399;SDS011;45045;45.440;9.178;2022-12-24T04:34:26;64.82;;;46.40;;
32399;SDS011;45045;45.440;9.178;2022-12-24T04:36:52;60.65;;;45.72;;
32399;SDS011;45045;45.440;9.178;2022-12-24T04:39:17;64.13;;;47.33;;
32399;SDS011;45045;45.440;9.178;2022-12-24T04:41:43;61.17;;;45.67;;
32399;SDS011;45045;45.440;9.178;2022-12-24T04:44:09;65.45;;;47.38;;
32399;SDS011;45045;45.440;9.178;2022-12-24T04:46:35;66.10;;;46.50;;
32399;SDS011;45045;45.440;9.178;2022-12-24T04:49:00;65.85;;;48.47;;
32399;SDS011;45045;45.440;9.178;2022-12-24T04:51:27;63.58;;;46.88;;
32399;SDS011;45045;45.440;9.178;2022-12-24T04:53:53;63.60;;;46.90;;
32399;SDS011;45045;45.440;9.178;2022-12-24T04:56:21;61.50;;;46.83;;
32399;SDS011;45045;45.440;9.178;2022-12-24T04:58:48;65.55;;;46.92;;
32399;SDS011;45045;45.440;9.178;2022-12-24T05:01:18;64.38;;;47.70;;
32399;SDS011;45045;45.440;9.178;2022-12-24T05:03:45;67.32;;;48.22;;
32399;SDS011;45045;45.440;9.178;2022-12-24T05:06:12;69.05;;;49.70;;
32399;SDS011;45045;45.440;9.178;2022-12-24T05:08:40;69.40;;;50.72;;
32399;SDS011;45045;45.440;9.178;2022-12-24T05:11:06;70.85;;;49.20;;
32399;SDS011;45045;45.440;9.178;2022-12-24T05:13:32;71.63;;;50.35;;
32399;SDS011;45045;45.440;9.178;2022-12-24T05:15:58;68.72;;;48.80;;
32399;SDS011;45045;45.440;9.178;2022-12-24T05:18:24;70.30;;;49.38;;
32399;SDS011;45045;45.440;9.178;2022-12-24T05:20:50;68.82;;;49.60;;
32399;SDS011;45045;45.440;9.178;2022-12-24T05:23:16;73.75;;;49.42;;
32399;SDS011;45045;45.440;9.178;2022-12-24T05:26:17;79.28;;;53.03;;
32399;SDS011;45045;45.440;9.178;2022-12-24T05:28:51;71.88;;;51.22;;
32399;SDS011;45045;45.440;9.178;2022-12-24T05:31:18;79.40;;;55.78;;
32399;SDS011;45045;45.440;9.178;2022-12-24T05:33:45;74.20;;;52.78;;
32399;SDS011;45045;45.440;9.178;2022-12-24T05:36:10;72.57;;;52.60;;
32399;SDS011;45045;45.440;9.178;2022-12-24T05:38:36;73.15;;;52.00;;
32399;SDS011;45045;45.440;9.178;2022-12-24T05:41:02;76.15;;;53.22;;
32399;SDS011;45045;45.440;9.178;2022-12-24T05:43:28;69.43;;;50.20;;
32399;SDS011;45045;45.440;9.178;2022-12-24T05:46:00;74.22;;;49.22;;
32399;SDS011;45045;45.440;9.178;2022-12-24T05:48:28;77.00;;;50.45;;
32399;SDS011;45045;45.440;9.178;2022-12-24T05:50:54;70.53;;;50.67;;
32399;SDS011;45045;45.440;9.178;2022-12-24T05:53:20;69.18;;;48.65;;
32399;SDS011;45045;45.440;9.178;2022-12-24T05:55:46;70.40;;;49.60;;
32399;SDS011;45045;45.440;9.178;2022-12-24T05:58:12;69.43;;;49.63;;
32399;SDS011;45045;45.440;9.178;2022-12-24T06:00:38;73.72;;;52.45;;
32399;SDS011;45045;45.440;9.178;2022-12-24T06:03:04;75.82;;;51.75;;
32399;SDS011;45045;45.440;9.178;2022-12-24T06:05:30;77.40;;;52.00;;
32399;SDS011;45045;45.440;9.178;2022-12-24T06:07:56;68.93;;;51.25;;
32399;SDS011;45045;45.440;9.178;2022-12-24T06:10:22;75.43;;;53.75;;
32399;SDS011;45045;45.440;9.178;2022-12-24T06:12:49;79.40;;;53.80;;
32399;SDS011;45045;45.440;9.178;2022-12-24T06:15:14;78.93;;;53.22;;
32399;SDS011;45045;45.440;9.178;2022-12-24T06:17:41;75.45;;;53.55;;
32399;SDS011;45045;45.440;9.178;2022-12-24T06:20:07;71.60;;;51.08;;
32399;SDS011;45045;45.440;9.178;2022-12-24T06:22:33;74.35;;;52.17;;
32399;SDS011;45045;45.440;9.178;2022-12-24T06:24:59;73.32;;;52.63;;
32399;SDS011;45045;45.440;9.178;2022-12-24T06:27:24;77.43;;;52.22;;
32399;SDS011;45045;45.440;9.178;2022-12-24T06:29:50;73.97;;;51.60;;
32399;SDS011;45045;45.440;9.178;2022-12-24T06:32:16;77.47;;;54.05;;
32399;SDS011;45045;45.440;9.178;2022-12-24T06:34:42;75.47;;;52.67;;
32399;SDS011;45045;45.440;9.178;2022-12-24T06:37:07;74.57;;;53.38;;
32399;SDS011;45045;45.440;9.178;2022-12-24T06:39:42;75.93;;;51.90;;
32399;SDS011;45045;45.440;9.178;2022-12-24T06:42:12;76.20;;;51.38;;
32399;SDS011;45045;45.440;9.178;2022-12-24T06:44:38;75.32;;;54.63;;
32399;SDS011;45045;45.440;9.178;2022-12-24T06:47:04;69.68;;;50.83;;
32399;SDS011;45045;45.440;9.178;2022-12-24T06:49:30;71.20;;;51.03;;
32399;SDS011;45045;45.440;9.178;2022-12-24T06:51:55;70.85;;;51.35;;
32399;SDS011;45045;45.440;9.178;2022-12-24T06:54:21;69.63;;;49.10;;
32399;SDS011;45045;45.440;9.178;2022-12-24T06:56:47;69.82;;;49.50;;
32399;SDS011;45045;45.440;9.178;2022-12-24T06:59:13;69.68;;;49.47;;
32399;SDS011;45045;45.440;9.178;2022-12-24T07:01:39;67.97;;;49.30;;
32399;SDS011;45045;45.440;9.178;2022-12-24T07:04:05;69.95;;;50.25;;
32399;SDS011;45045;45.440;9.178;2022-12-24T07:06:30;69.10;;;49.38;;
32399;SDS011;45045;45.440;9.178;2022-12-24T07:08:56;67.80;;;49.80;;
32399;SDS011;45045;45.440;9.178;2022-12-24T07:11:22;67.82;;;49.20;;
32399;SDS011;45045;45.440;9.178;2022-12-24T07:13:49;70.35;;;49.40;;
32399;SDS011;45045;45.440;9.178;2022-12-24T07:16:15;69.88;;;48.25;;
32399;SDS011;45045;45.440;9.178;2022-12-24T07:18:41;67.70;;;49.38;;
32399;SDS011;45045;45.440;9.178;2022-12-24T07:21:07;68.28;;;48.25;;
32399;SDS011;45045;45.440;9.178;2022-12-24T07:23:33;76.43;;;50.95;;
32399;SDS011;45045;45.440;9.178;2022-12-24T07:26:00;70.35;;;49.33;;
32399;SDS011;45045;45.440;9.178;2022-12-24T07:28:27;67.35;;;49.67;;
32399;SDS011;45045;45.440;9.178;2022-12-24T07:30:54;75.88;;;50.13;;
32399;SDS011;45045;45.440;9.178;2022-12-24T07:33:20;72.13;;;50.30;;
32399;SDS011;45045;45.440;9.178;2022-12-24T07:35:46;71.03;;;50.85;;
32399;SDS011;45045;45.440;9.178;2022-12-24T07:38:12;73.22;;;50.75;;
32399;SDS011;45045;45.440;9.178;2022-12-24T07:40:38;70.68;;;49.42;;
32399;SDS011;45045;45.440;9.178;2022-12-24T07:43:04;67.88;;;49.50;;
32399;SDS011;45045;45.440;9.178;2022-12-24T07:45:30;74.82;;;51.38;;
32399;SDS011;45045;45.440;9.178;2022-12-24T07:47:56;79.88;;;51.60;;
32399;SDS011;45045;45.440;9.178;2022-12-24T07:50:22;71.57;;;50.88;;
32399;SDS011;45045;45.440;9.178;2022-12-24T07:52:48;72.47;;;49.28;;
32399;SDS011;45045;45.440;9.178;2022-12-24T07:55:14;74.03;;;50.95;;
32399;SDS011;45045;45.440;9.178;2022-12-24T07:57:39;77.00;;;52.38;;
32399;SDS011;45045;45.440;9.178;2022-12-24T08:00:05;78.20;;;51.30;;
32399;SDS011;45045;45.440;9.178;2022-12-24T08:02:32;80.60;;;52.53;;
32399;SDS011;45045;45.440;9.178;2022-12-24T08:04:57;74.13;;;50.28;;
32399;SDS011;45045;45.440;9.178;2022-12-24T08:07:23;79.13;;;51.90;;
32399;SDS011;45045;45.440;9.178;2022-12-24T08:09:49;76.90;;;52.90;;
32399;SDS011;45045;45.440;9.178;2022-12-24T08:12:15;71.05;;;50.30;;
32399;SDS011;45045;45.440;9.178;2022-12-24T08:14:41;75.95;;;51.90;;
32399;SDS011;45045;45.440;9.178;2022-12-24T08:17:06;77.35;;;51.95;;
32399;SDS011;45045;45.440;9.178;2022-12-24T08:19:32;77.78;;;52.03;;
32399;SDS011;45045;45.440;9.178;2022-12-24T08:21:58;73.57;;;50.83;;
32399;SDS011;45045;45.440;9.178;2022-12-24T08:24:24;88.80;;;57.10;;
32399;SDS011;45045;45.440;9.178;2022-12-24T08:26:50;80.93;;;53.22;;
32399;SDS011;45045;45.440;9.178;2022-12-24T08:29:16;80.43;;;54.83;;
32399;SDS011;45045;45.440;9.178;2022-12-24T08:31:41;82.47;;;55.08;;
32399;SDS011;45045;45.440;9.178;2022-12-24T08:34:07;81.03;;;54.65;;
32399;SDS011;45045;45.440;9.178;2022-12-24T08:36:34;77.13;;;54.15;;
32399;SDS011;45045;45.440;9.178;2022-12-24T08:39:00;86.35;;;55.58;;
32399;SDS011;45045;45.440;9.178;2022-12-24T08:41:28;82.30;;;54.28;;
32399;SDS011;45045;45.440;9.178;2022-12-24T08:43:55;76.72;;;53.03;;
32399;SDS011;45045;45.440;9.178;2022-12-24T08:46:21;76.90;;;52.00;;
32399;SDS011;45045;45.440;9.178;2022-12-24T08:48:47;76.50;;;53.38;;
32399;SDS011;45045;45.440;9.178;2022-12-24T08:51:12;80.95;;;54.17;;
32399;SDS011;45045;45.440;9.178;2022-12-24T08:53:39;81.70;;;53.60;;
32399;SDS011;45045;45.440;9.178;2022-12-24T08:56:06;80.35;;;53.25;;
32399;SDS011;45045;45.440;9.178;2022-12-24T08:58:33;78.75;;;52.65;;
32399;SDS011;45045;45.440;9.178;2022-12-24T09:00:59;77.82;;;50.67;;
32399;SDS011;45045;45.440;9.178;2022-12-24T09:03:26;78.13;;;51.45;;
32399;SDS011;45045;45.440;9.178;2022-12-24T09:05:52;72.80;;;49.72;;
32399;SDS011;45045;45.440;9.178;2022-12-24T09:08:18;75.78;;;48.95;;
32399;SDS011;45045;45.440;9.178;2022-12-24T09:10:45;73.25;;;51.03;;
32399;SDS011;45045;45.440;9.178;2022-12-24T09:13:11;72.57;;;49.33;;
32399;SDS011;45045;45.440;9.178;2022-12-24T09:15:37;72.55;;;50.28;;
32399;SDS011;45045;45.440;9.178;2022-12-24T09:18:02;72.38;;;50.13;;
32399;SDS011;45045;45.440;9.178;2022-12-24T09:20:28;78.00;;;53.53;;
32399;SDS011;45045;45.440;9.178;2022-12-24T09:22:54;78.57;;;52.58;;
32399;SDS011;45045;45.440;9.178;2022-12-24T09:25:20;80.63;;;53.83;;
32399;SDS011;45045;45.440;9.178;2022-12-24T09:27:46;77.80;;;52.22;;
32399;SDS011;45045;45.440;9.178;2022-12-24T09:30:12;76.75;;;50.38;;
32399;SDS011;45045;45.440;9.178;2022-12-24T09:32:38;80.55;;;50.13;;
32399;SDS011;45045;45.440;9.178;2022-12-24T09:35:03;72.78;;;49.63;;
32399;SDS011;45045;45.440;9.178;2022-12-24T09:37:29;71.90;;;49.05;;
32399;SDS011;45045;45.440;9.178;2022-12-24T09:39:55;75.85;;;49.05;;
32399;SDS011;45045;45.440;9.178;2022-12-24T09:49:57;77.95;;;51.95;;
32399;SDS011;45045;45.440;9.178;2022-12-24T09:52:31;74.15;;;46.55;;
32399;SDS011;45045;45.440;9.178;2022-12-24T09:57:37;78.93;;;50.67;;
32399;SDS011;45045;45.440;9.178;2022-12-24T10:00:27;73.90;;;50.65;;
32399;SDS011;45045;45.440;9.178;2022-12-24T10:02:56;77.68;;;51.78;;
32399;SDS011;45045;45.440;9.178;2022-12-24T10:05:30;74.85;;;50.25;;
32399;SDS011;45045;45.440;9.178;2022-12-24T10:08:10;75.97;;;50.28;;
32399;SDS011;45045;45.440;9.178;2022-12-24T10:10:52;76.80;;;51.63;;
32399;SDS011;45045;45.440;9.178;2022-12-24T10:19:04;87.68;;;54.10;;
32399;SDS011;45045;45.440;9.178;2022-12-24T10:24:43;80.90;;;51.75;;
32399;SDS011;45045;45.440;9.178;2022-12-24T10:27:29;77.80;;;49.80;;
32399;SDS011;45045;45.440;9.178;2022-12-24T10:30:01;78.13;;;52.05;;
32399;SDS011;45045;45.440;9.178;2022-12-24T10:32:31;74.72;;;49.92;;
32399;SDS011;45045;45.440;9.178;2022-12-24T10:35:00;77.53;;;49.25;;
32399;SDS011;45045;45.440;9.178;2022-12-24T10:37:32;72.22;;;48.88;;
32399;SDS011;45045;45.440;9.178;2022-12-24T10:39:59;80.60;;;50.53;;
32399;SDS011;45045;45.440;9.178;2022-12-24T10:42:31;78.07;;;49.13;;
32399;SDS011;45045;45.440;9.178;2022-12-24T10:45:07;79.18;;;50.83;;
32399;SDS011;45045;45.440;9.178;2022-12-24T10:47:40;80.03;;;49.08;;
32399;SDS011;45045;45.440;9.178;2022-12-24T10:50:15;80.97;;;50.55;;
32399;SDS011;45045;45.440;9.178;2022-12-24T10:52:48;84.53;;;52.58;;
32399;SDS011;45045;45.440;9.178;2022-12-24T10:55:20;95.03;;;55.70;;
32399;SDS011;45045;45.440;9.178;2022-12-24T10:58:04;81.82;;;52.10;;
32399;SDS011;45045;45.440;9.178;2022-12-24T11:00:37;90.03;;;56.40;;
32399;SDS011;45045;45.440;9.178;2022-12-24T11:03:05;86.55;;;54.92;;
32399;SDS011;45045;45.440;9.178;2022-12-24T11:05:37;86.45;;;54.72;;
32399;SDS011;45045;45.440;9.178;2022-12-24T11:08:14;82.53;;;51.70;;
32399;SDS011;45045;45.440;9.178;2022-12-24T11:10:43;85.47;;;54.83;;
32399;SDS011;45045;45.440;9.178;2022-12-24T11:13:39;84.80;;;54.63;;
32399;SDS011;45045;45.440;9.178;2022-12-24T11:18:58;92.70;;;55.83;;
32399;SDS011;45045;45.440;9.178;2022-12-24T11:21:27;83.53;;;52.63;;
32399;SDS011;45045;45.440;9.178;2022-12-24T11:24:07;82.82;;;51.80;;
32399;SDS011;45045;45.440;9.178;2022-12-24T11:26:36;80.30;;;52.33;;
32399;SDS011;45045;45.440;9.178;2022-12-24T11:29:03;81.07;;;52.20;;
32399;SDS011;45045;45.440;9.178;2022-12-24T11:31:32;86.32;;;52.60;;
32399;SDS011;45045;45.440;9.178;2022-12-24T11:34:02;81.82;;;52.88;;
32399;SDS011;45045;45.440;9.178;2022-12-24T11:36:52;88.60;;;54.40;;
32399;SDS011;45045;45.440;9.178;2022-12-24T11:39:22;90.57;;;56.78;;
32399;SDS011;45045;45.440;9.178;2022-12-24T11:41:50;90.40;;;56.67;;
32399;SDS011;45045;45.440;9.178;2022-12-24T11:44:26;93.88;;;59.13;;
32399;SDS011;45045;45.440;9.178;2022-12-24T11:46:53;100.15;;;62.50;;
32399;SDS011;45045;45.440;9.178;2022-12-24T11:49:26;105.95;;;63.17;;
32399;SDS011;45045;45.440;9.178;2022-12-24T11:57:09;97.70;;;61.50;;
32399;SDS011;45045;45.440;9.178;2022-12-24T11:59:40;103.35;;;63.28;;
32399;SDS011;45045;45.440;9.178;2022-12-24T12:02:17;106.97;;;65.13;;
32399;SDS011;45045;45.440;9.178;2022-12-24T12:04:54;96.70;;;60.80;;
32399;SDS011;45045;45.440;9.178;2022-12-24T12:07:27;90.38;;;58.70;;
32399;SDS011;45045;45.440;9.178;2022-12-24T12:10:01;96.68;;;58.65;;
32399;SDS011;45045;45.440;9.178;2022-12-24T12:12:44;91.28;;;56.95;;
32399;SDS011;45045;45.440;9.178;2022-12-24T12:15:21;86.35;;;59.47;;
32399;SDS011;45045;45.440;9.178;2022-12-24T12:18:02;85.97;;;57.63;;
32399;SDS011;45045;45.440;9.178;2022-12-24T12:20:41;87.53;;;57.70;;
32399;SDS011;45045;45.440;9.178;2022-12-24T12:23:14;86.90;;;58.63;;
32399;SDS011;45045;45.440;9.178;2022-12-24T12:26:03;85.00;;;56.83;;
32399;SDS011;45045;45.440;9.178;2022-12-24T12:28:54;92.55;;;58.72;;
32399;SDS011;45045;45.440;9.178;2022-12-24T12:31:40;88.55;;;58.35;;
32399;SDS011;45045;45.440;9.178;2022-12-24T12:34:12;94.25;;;59.28;;
32399;SDS011;45045;45.440;9.178;2022-12-24T12:36:47;90.60;;;58.92;;
32399;SDS011;45045;45.440;9.178;2022-12-24T12:39:17;97.88;;;61.35;;
32399;SDS011;45045;45.440;9.178;2022-12-24T12:44:37;96.10;;;61.50;;
32399;SDS011;45045;45.440;9.178;2022-12-24T12:56:10;94.78;;;59.90;;
32399;SDS011;45045;45.440;9.178;2022-12-24T13:01:29;97.05;;;62.08;;
32399;SDS011;45045;45.440;9.178;2022-12-24T13:12:47;100.60;;;64.93;;
32399;SDS011;45045;45.440;9.178;2022-12-24T13:15:34;105.60;;;67.03;;
32399;SDS011;45045;45.440;9.178;2022-12-24T13:21:01;104.30;;;66.00;;
32399;SDS011;45045;45.440;9.178;2022-12-24T13:23:27;101.85;;;66.47;;
32399;SDS011;45045;45.440;9.178;2022-12-24T13:25:53;104.40;;;66.15;;
32399;SDS011;45045;45.440;9.178;2022-12-24T13:31:04;102.35;;;65.30;;
32399;SDS011;45045;45.440;9.178;2022-12-24T13:38:46;107.22;;;67.43;;
32399;SDS011;45045;45.440;9.178;2022-12-24T13:54:59;103.80;;;64.22;;
32399;SDS011;45045;45.440;9.178;2022-12-24T13:57:32;122.38;;;85.95;;
32399;SDS011;45045;45.440;9.178;2022-12-24T14:02:50;104.93;;;63.58;;
32399;SDS011;45045;45.440;9.178;2022-12-24T14:05:49;99.50;;;63.22;;
32399;SDS011;45045;45.440;9.178;2022-12-24T14:11:21;101.13;;;62.85;;
32399;SDS011;45045;45.440;9.178;2022-12-24T14:16:31;99.03;;;64.53;;
32399;SDS011;45045;45.440;9.178;2022-12-24T14:24:26;98.20;;;63.97;;
32399;SDS011;45045;45.440;9.178;2022-12-24T14:26:57;99.38;;;61.53;;
32399;SDS011;45045;45.440;9.178;2022-12-24T14:29:33;102.07;;;65.40;;
32399;SDS011;45045;45.440;9.178;2022-12-24T14:32:14;98.97;;;64.68;;
32399;SDS011;45045;45.440;9.178;2022-12-24T14:34:41;95.65;;;64.47;;
32399;SDS011;45045;45.440;9.178;2022-12-24T14:37:07;99.07;;;63.92;;
32399;SDS011;45045;45.440;9.178;2022-12-24T14:39:38;102.63;;;65.22;;
32399;SDS011;45045;45.440;9.178;2022-12-24T14:42:28;100.15;;;65.78;;
32399;SDS011;45045;45.440;9.178;2022-12-24T14:45:47;89.50;;;60.92;;
32399;SDS011;45045;45.440;9.178;2022-12-24T14:53:29;96.95;;;60.90;;
32399;SDS011;45045;45.440;9.178;2022-12-24T14:55:58;95.90;;;63.08;;
32399;SDS011;45045;45.440;9.178;2022-12-24T14:58:37;94.00;;;61.58;;
32399;SDS011;45045;45.440;9.178;2022-12-24T15:06:34;92.88;;;61.40;;
32399;SDS011;45045;45.440;9.178;2022-12-24T15:09:01;94.07;;;63.22;;
32399;SDS011;45045;45.440;9.178;2022-12-24T15:11:27;92.15;;;59.85;;
32399;SDS011;45045;45.440;9.178;2022-12-24T15:13:54;90.10;;;60.33;;
32399;SDS011;45045;45.440;9.178;2022-12-24T15:16:26;92.68;;;59.83;;
32399;SDS011;45045;45.440;9.178;2022-12-24T15:18:58;90.45;;;59.13;;
32399;SDS011;45045;45.440;9.178;2022-12-24T15:21:45;93.40;;;60.67;;
32399;SDS011;45045;45.440;9.178;2022-12-24T15:26:56;91.68;;;60.03;;
32399;SDS011;45045;45.440;9.178;2022-12-24T15:29:23;93.75;;;61.13;;
32399;SDS011;45045;45.440;9.178;2022-12-24T15:31:54;92.88;;;61.90;;
32399;SDS011;45045;45.440;9.178;2022-12-24T15:37:00;91.32;;;60.92;;
32399;SDS011;45045;45.440;9.178;2022-12-24T15:39:28;91.68;;;60.05;;
32399;SDS011;45045;45.440;9.178;2022-12-24T15:41:54;88.57;;;58.85;;
32399;SDS011;45045;45.440;9.178;2022-12-24T15:44:42;91.22;;;59.20;;
32399;SDS011;45045;45.440;9.178;2022-12-24T15:47:14;90.07;;;57.53;;
32399;SDS011;45045;45.440;9.178;2022-12-24T15:49:43;90.43;;;59.40;;
32399;SDS011;45045;45.440;9.178;2022-12-24T15:52:16;87.05;;;57.30;;
32399;SDS011;45045;45.440;9.178;2022-12-24T15:54:46;92.28;;;57.35;;
32399;SDS011;45045;45.440;9.178;2022-12-24T15:59:50;86.07;;;58.00;;
32399;SDS011;45045;45.440;9.178;2022-12-24T16:02:30;93.70;;;59.43;;
32399;SDS011;45045;45.440;9.178;2022-12-24T16:07:58;92.18;;;60.17;;
32399;SDS011;45045;45.440;9.178;2022-12-24T16:10:31;89.38;;;57.97;;
32399;SDS011;45045;45.440;9.178;2022-12-24T16:12:57;91.93;;;59.55;;
32399;SDS011;45045;45.440;9.178;2022-12-24T16:15:23;88.97;;;57.22;;
32399;SDS011;45045;45.440;9.178;2022-12-24T16:17:49;87.90;;;56.90;;
32399;SDS011;45045;45.440;9.178;2022-12-24T16:20:19;88.93;;;57.85;;
32399;SDS011;45045;45.440;9.178;2022-12-24T16:22:46;93.70;;;60.05;;
32399;SDS011;45045;45.440;9.178;2022-12-24T16:25:26;93.45;;;60.22;;
32399;SDS011;45045;45.440;9.178;2022-12-24T16:27:52;94.45;;;60.72;;
32399;SDS011;45045;45.440;9.178;2022-12-24T16:30:18;102.10;;;62.55;;
32399;SDS011;45045;45.440;9.178;2022-12-24T16:32:46;101.43;;;61.92;;
32399;SDS011;45045;45.440;9.178;2022-12-24T16:35:28;100.40;;;61.85;;
32399;SDS011;45045;45.440;9.178;2022-12-24T16:38:01;112.95;;;66.00;;
32399;SDS011;45045;45.440;9.178;2022-12-24T16:40:26;114.40;;;67.50;;
32399;SDS011;45045;45.440;9.178;2022-12-24T16:42:52;104.47;;;63.67;;
32399;SDS011;45045;45.440;9.178;2022-12-24T16:45:36;112.30;;;66.22;;
32399;SDS011;45045;45.440;9.178;2022-12-24T16:48:02;107.72;;;65.13;;
32399;SDS011;45045;45.440;9.178;2022-12-24T16:50:31;112.68;;;68.13;;
32399;SDS011;45045;45.440;9.178;2022-12-24T16:52:56;120.10;;;68.97;;